createdAt,value
2023-05-24T00:01:42.196Z,24.55
2023-05-24T00:03:42.553Z,24.52
2023-05-24T00:05:42.327Z,24.53
2023-05-24T00:07:42.404Z,24.54
2023-05-24T00:09:42.286Z,24.54
2023-05-24T00:11:42.362Z,24.54
2023-05-24T00:13:42.354Z,24.59
2023-05-24T00:15:42.281Z,24.51
2023-05-24T00:17:42.331Z,24.52
2023-05-24T00:19:42.423Z,24.51
2023-05-24T00:21:42.290Z,24.52
2023-05-24T00:23:42.294Z,24.54
2023-05-24T00:25:42.369Z,24.40
2023-05-24T00:27:42.352Z,24.52
2023-05-24T00:29:42.383Z,24.62
2023-05-24T00:31:42.402Z,24.51
2023-05-24T00:33:42.411Z,24.51
2023-05-24T00:35:42.392Z,24.51
2023-05-24T00:37:42.409Z,24.52
2023-05-24T00:39:42.326Z,24.53
2023-05-24T00:41:42.379Z,24.51
2023-05-24T00:43:42.293Z,24.53
2023-05-24T00:45:42.220Z,24.51
2023-05-24T00:47:42.567Z,24.48
2023-05-24T00:49:42.342Z,24.52
2023-05-24T00:51:42.388Z,24.51
2023-05-24T00:53:42.324Z,24.40
2023-05-24T00:55:42.427Z,24.51
2023-05-24T00:57:42.397Z,24.51
2023-05-24T00:59:42.424Z,24.52
2023-05-24T01:01:42.435Z,24.52
2023-05-24T01:03:42.600Z,24.51
2023-05-24T01:05:42.364Z,24.51
2023-05-24T01:07:42.295Z,24.51
2023-05-24T01:09:42.520Z,24.53
2023-05-24T01:11:42.420Z,24.51
2023-05-24T01:13:42.363Z,24.59
2023-05-24T01:15:42.516Z,24.48
2023-05-24T01:17:42.437Z,24.50
2023-05-24T01:19:42.347Z,24.33
2023-05-24T01:21:42.404Z,24.51
2023-05-24T01:23:42.399Z,24.51
2023-05-24T01:25:42.460Z,24.51
2023-05-24T01:27:42.428Z,24.48
2023-05-24T01:29:42.432Z,24.48
2023-05-24T01:31:42.579Z,24.51
2023-05-24T01:33:42.444Z,24.50
2023-05-24T01:35:42.471Z,24.51
2023-05-24T01:37:42.433Z,24.51
2023-05-24T01:39:42.468Z,24.43
2023-05-24T01:41:42.437Z,24.60
2023-05-24T01:43:42.344Z,24.47
2023-05-24T01:45:42.476Z,24.47
2023-05-24T01:47:42.475Z,24.55
2023-05-24T01:49:42.446Z,24.51
2023-05-24T01:51:42.510Z,24.55
2023-05-24T01:53:42.443Z,24.58
2023-05-24T01:55:42.440Z,24.51
2023-05-24T01:57:42.455Z,24.46
2023-05-24T01:59:42.538Z,24.51
2023-05-24T02:01:42.486Z,23.39
2023-05-24T02:03:42.457Z,23.26
2023-05-24T02:05:42.353Z,23.16
2023-05-24T02:07:42.449Z,22.81
2023-05-24T02:09:42.430Z,22.74
2023-05-24T02:11:42.372Z,22.68
2023-05-24T02:13:42.474Z,22.76
2023-05-24T02:15:42.451Z,22.68
2023-05-24T02:17:42.521Z,22.87
2023-05-24T02:19:42.488Z,23.02
2023-05-24T02:21:42.451Z,22.94
2023-05-24T02:23:42.514Z,22.95
2023-05-24T02:25:42.510Z,22.91
2023-05-24T02:27:42.508Z,22.41
2023-05-24T02:29:42.493Z,22.32
2023-05-24T02:31:42.513Z,22.35
2023-05-24T02:33:42.544Z,22.24
2023-05-24T02:35:42.506Z,22.27
2023-05-24T02:37:42.504Z,22.62
2023-05-24T02:39:42.521Z,22.73
2023-05-24T02:41:42.495Z,22.70
2023-05-24T02:43:42.488Z,22.77
2023-05-24T02:45:42.475Z,22.78
2023-05-24T02:47:42.556Z,22.68
2023-05-24T02:49:42.499Z,22.78
2023-05-24T02:51:42.526Z,22.76
2023-05-24T02:53:42.515Z,22.73
2023-05-24T02:55:42.529Z,22.69
2023-05-24T02:57:42.489Z,22.72
2023-05-24T02:59:42.511Z,22.54
2023-05-24T03:01:42.582Z,22.28
2023-05-24T03:03:42.583Z,22.38
2023-05-24T03:05:42.487Z,22.35
2023-05-24T03:07:42.506Z,22.28
2023-05-24T03:09:42.530Z,21.99
2023-05-24T03:11:42.573Z,22.02
2023-05-24T03:13:42.551Z,22.02
2023-05-24T03:15:42.507Z,21.98
2023-05-24T03:17:42.506Z,22.02
2023-05-24T03:19:42.445Z,22.40
2023-05-24T03:21:42.490Z,22.40
2023-05-24T03:23:42.502Z,22.42
2023-05-24T03:25:42.520Z,22.48
2023-05-24T03:27:42.577Z,22.49
2023-05-24T03:29:42.559Z,22.53
2023-05-24T03:31:42.617Z,22.23
2023-05-24T03:33:42.578Z,22.38
2023-05-24T03:35:42.591Z,22.43
2023-05-24T03:37:42.609Z,22.38
2023-05-24T03:39:42.580Z,22.35
2023-05-24T03:41:42.531Z,22.34
2023-05-24T03:43:42.621Z,22.38
2023-05-24T03:45:42.572Z,22.46
2023-05-24T03:47:42.592Z,22.38
2023-05-24T03:49:42.589Z,22.02
2023-05-24T03:51:42.576Z,21.91
2023-05-24T03:53:42.614Z,21.84
2023-05-24T03:55:42.538Z,21.74
2023-05-24T03:57:42.580Z,21.88
2023-05-24T03:59:42.688Z,21.85
2023-05-24T04:01:42.509Z,21.94
2023-05-24T04:03:42.668Z,22.03
2023-05-24T04:05:42.665Z,22.02
2023-05-24T04:07:42.617Z,22.11
2023-05-24T04:09:42.617Z,22.11
2023-05-24T04:11:42.581Z,22.14
2023-05-24T04:13:42.689Z,22.02
2023-05-24T04:15:42.542Z,22.03
2023-05-24T04:17:42.851Z,22.05
2023-05-24T04:19:42.610Z,22.10
2023-05-24T04:21:42.613Z,21.93
2023-05-24T04:23:42.603Z,22.11
2023-05-24T04:25:42.617Z,22.02
2023-05-24T04:27:42.641Z,22.01
2023-05-24T04:29:42.652Z,21.97
2023-05-24T04:31:42.729Z,21.80
2023-05-24T04:33:42.467Z,21.82
2023-05-24T04:35:42.552Z,21.81
2023-05-24T04:37:42.528Z,21.83
2023-05-24T04:39:42.608Z,21.84
2023-05-24T04:41:42.650Z,22.09
2023-05-24T04:43:42.520Z,22.19
2023-05-24T04:45:42.655Z,22.07
2023-05-24T04:47:42.693Z,21.96
2023-05-24T04:49:42.533Z,21.98
2023-05-24T04:51:42.613Z,22.01
2023-05-24T04:53:42.629Z,21.96
2023-05-24T04:55:42.676Z,21.98
2023-05-24T04:57:42.576Z,22.27
2023-05-24T04:59:42.677Z,22.23
2023-05-24T05:01:42.723Z,22.26
2023-05-24T05:03:42.692Z,22.25
2023-05-24T05:05:42.663Z,22.28
2023-05-24T05:07:42.645Z,22.26
2023-05-24T05:09:42.594Z,22.25
2023-05-24T05:11:42.621Z,22.27
2023-05-24T05:13:42.664Z,21.81
2023-05-24T05:15:42.936Z,21.81
2023-05-24T05:17:42.692Z,21.74
2023-05-24T05:19:42.678Z,21.80
2023-05-24T05:21:42.715Z,21.78
2023-05-24T05:23:42.695Z,22.14
2023-05-24T05:25:42.681Z,22.39
2023-05-24T05:27:42.643Z,22.41
2023-05-24T05:29:42.642Z,22.44
2023-05-24T05:31:42.678Z,22.54
2023-05-24T05:33:42.702Z,22.48
2023-05-24T05:35:42.655Z,22.53
2023-05-24T05:37:42.569Z,22.67
2023-05-24T05:39:42.718Z,22.37
2023-05-24T05:41:44.724Z,22.11
2023-05-24T05:43:42.702Z,22.03
2023-05-24T05:45:42.733Z,22.10
2023-05-24T05:47:42.697Z,22.07
2023-05-24T05:49:42.735Z,22.11
2023-05-24T05:51:42.639Z,22.44
2023-05-24T05:53:42.678Z,22.23
2023-05-24T05:55:42.836Z,21.78
2023-05-24T05:57:42.708Z,21.81
2023-05-24T05:59:42.658Z,21.80
2023-05-24T06:01:42.695Z,21.82
2023-05-24T06:03:42.900Z,21.70
2023-05-24T06:05:42.739Z,22.34
2023-05-24T06:07:42.710Z,22.56
2023-05-24T06:09:42.678Z,22.67
2023-05-24T06:11:42.683Z,22.81
2023-05-24T06:13:42.640Z,22.83
2023-05-24T06:15:42.798Z,22.88
2023-05-24T06:17:42.736Z,22.85
2023-05-24T06:19:42.797Z,22.98
2023-05-24T06:21:42.778Z,23.04
2023-05-24T06:23:42.719Z,23.05
2023-05-24T06:25:42.718Z,23.06
2023-05-24T06:27:42.698Z,23.18
2023-05-24T06:29:42.823Z,23.20
2023-05-24T06:31:42.821Z,23.17
2023-05-24T06:35:42.776Z,22.26
2023-05-24T06:37:42.777Z,22.06
2023-05-24T06:39:42.669Z,21.86
2023-05-24T06:41:42.793Z,21.82
2023-05-24T06:43:42.733Z,21.86
2023-05-24T06:45:42.653Z,22.35
2023-05-24T06:47:42.790Z,22.69
2023-05-24T06:49:42.617Z,22.99
2023-05-24T06:51:42.712Z,23.19
2023-05-24T06:53:42.787Z,23.27
2023-05-24T06:55:42.672Z,23.26
2023-05-24T06:57:42.797Z,23.42
2023-05-24T06:59:42.873Z,23.57
2023-05-24T07:01:42.840Z,23.51
2023-05-24T07:03:42.788Z,23.85
2023-05-24T07:05:42.833Z,23.75
2023-05-24T07:07:42.719Z,23.69
2023-05-24T07:09:42.686Z,23.66
2023-05-24T07:11:42.832Z,23.77
2023-05-24T07:13:42.778Z,23.52
2023-05-24T07:15:42.783Z,23.73
2023-05-24T07:17:42.964Z,22.90
2023-05-24T07:19:42.791Z,22.74
2023-05-24T07:21:42.808Z,22.56
2023-05-24T07:23:42.756Z,22.42
2023-05-24T07:25:42.786Z,22.34
2023-05-24T07:27:42.849Z,22.68
2023-05-24T07:29:42.768Z,22.78
2023-05-24T07:31:42.987Z,22.90
2023-05-24T07:33:42.823Z,23.16
2023-05-24T07:35:42.803Z,23.53
2023-05-24T07:37:42.857Z,23.43
2023-05-24T07:39:42.781Z,23.47
2023-05-24T07:41:42.862Z,23.65
2023-05-24T07:43:42.726Z,23.96
2023-05-24T07:45:43.059Z,24.23
2023-05-24T07:47:42.861Z,24.24
2023-05-24T07:49:42.727Z,24.50
2023-05-24T07:51:42.867Z,24.04
2023-05-24T07:53:42.836Z,24.41
2023-05-24T07:55:43.031Z,24.51
2023-05-24T07:57:42.857Z,23.82
2023-05-24T07:59:42.748Z,23.62
2023-05-24T08:01:42.757Z,23.13
2023-05-24T08:03:42.997Z,23.41
2023-05-24T08:05:43.137Z,23.26
2023-05-24T08:07:42.809Z,23.52
2023-05-24T08:09:42.899Z,24.44
2023-05-24T08:11:42.882Z,24.38
2023-05-24T08:13:42.846Z,24.83
2023-05-24T08:15:43.072Z,24.01
2023-05-24T08:17:42.899Z,23.81
2023-05-24T08:19:42.847Z,23.96
2023-05-24T08:21:42.788Z,24.54
2023-05-24T08:23:42.824Z,23.81
2023-05-24T08:25:43.079Z,23.63
2023-05-24T08:27:42.996Z,23.84
2023-05-24T08:29:42.927Z,24.04
2023-05-24T08:31:42.900Z,24.05
2023-05-24T08:33:42.868Z,24.02
2023-05-24T08:35:43.107Z,24.10
2023-05-24T08:37:42.859Z,24.31
2023-05-24T08:39:42.795Z,23.86
2023-05-24T08:41:43.625Z,23.66
2023-05-24T08:43:42.854Z,23.73
2023-05-24T08:45:43.166Z,23.63
2023-05-24T08:47:43.047Z,24.19
2023-05-24T08:49:42.900Z,23.79
2023-05-24T08:51:42.960Z,24.62
2023-05-24T08:53:42.925Z,24.94
2023-05-24T08:55:43.050Z,24.63
2023-05-24T08:57:42.937Z,24.27
2023-05-24T08:59:42.961Z,24.59
2023-05-24T09:01:42.993Z,25.47
2023-05-24T09:03:42.988Z,24.00
2023-05-24T09:05:43.209Z,24.66
2023-05-24T09:07:42.896Z,24.40
2023-05-24T09:09:42.929Z,25.54
2023-05-24T09:11:42.946Z,25.09
2023-05-24T09:13:42.953Z,25.52
2023-05-24T09:15:43.202Z,24.98
2023-05-24T09:17:43.057Z,25.38
2023-05-24T09:19:42.938Z,25.10
2023-05-24T09:21:42.908Z,23.98
2023-05-24T09:23:42.884Z,23.69
2023-05-24T09:25:42.973Z,24.18
2023-05-24T09:27:42.954Z,24.08
2023-05-24T09:29:42.849Z,24.92
2023-05-24T09:31:42.842Z,24.59
2023-05-24T09:33:42.914Z,23.91
2023-05-24T09:35:42.962Z,23.88
2023-05-24T09:37:42.969Z,24.04
2023-05-24T09:39:42.950Z,25.54
2023-05-24T09:41:42.961Z,25.24
2023-05-24T09:43:42.781Z,23.92
2023-05-24T09:45:43.040Z,24.11
2023-05-24T09:47:43.041Z,24.00
2023-05-24T09:49:42.849Z,23.98
2023-05-24T09:51:43.089Z,23.91
2023-05-24T09:53:42.907Z,23.89
2023-05-24T09:55:43.002Z,23.94
2023-05-24T09:57:42.918Z,23.95
2023-05-24T09:59:42.841Z,25.65
2023-05-24T10:01:43.073Z,23.53
2023-05-24T10:03:42.895Z,23.73
2023-05-24T10:05:43.005Z,24.04
2023-05-24T10:07:42.989Z,23.97
2023-05-24T10:09:42.991Z,24.05
2023-05-24T10:11:42.922Z,23.87
2023-05-24T10:13:42.995Z,23.96
2023-05-24T10:15:42.999Z,25.59
2023-05-24T10:17:43.032Z,24.10
2023-05-24T10:19:43.032Z,25.05
2023-05-24T10:21:43.026Z,23.96
2023-05-24T10:23:42.984Z,24.00
2023-05-24T10:25:43.027Z,23.96
2023-05-24T10:27:43.017Z,24.05
2023-05-24T10:29:43.028Z,24.04
2023-05-24T10:31:43.107Z,24.08
2023-05-24T10:33:43.120Z,24.26
2023-05-24T10:35:43.086Z,24.08
2023-05-24T10:37:43.084Z,24.12
2023-05-24T10:39:43.062Z,23.98
2023-05-24T10:41:43.019Z,24.10
2023-05-24T10:43:43.870Z,24.26
2023-05-24T10:45:43.001Z,24.05
2023-05-24T10:47:43.056Z,23.53
2023-05-24T10:49:42.975Z,23.34
2023-05-24T10:51:43.025Z,23.05
2023-05-24T10:53:43.046Z,24.02
2023-05-24T10:55:43.019Z,24.76
2023-05-24T10:57:43.008Z,25.26
2023-05-24T10:59:42.956Z,23.93
2023-05-24T11:01:43.057Z,23.96
2023-05-24T11:03:43.005Z,23.94
2023-05-24T11:05:45.650Z,23.90
2023-05-24T11:07:43.038Z,25.65
2023-05-24T11:09:43.066Z,24.06
2023-05-24T11:11:43.066Z,23.96
2023-05-24T11:13:42.982Z,23.93
2023-05-24T11:15:43.036Z,23.87
2023-05-24T11:17:43.746Z,23.96
2023-05-24T11:19:43.028Z,24.00
2023-05-24T11:21:43.200Z,24.72
2023-05-24T11:23:43.067Z,23.53
2023-05-24T11:25:43.056Z,23.01
2023-05-24T11:27:42.994Z,23.11
2023-05-24T11:29:43.078Z,23.15
2023-05-24T11:31:44.829Z,23.98
2023-05-24T11:33:43.044Z,25.72
2023-05-24T11:35:43.109Z,23.91
2023-05-24T11:37:46.791Z,23.96
2023-05-24T11:39:42.992Z,24.04
2023-05-24T11:41:43.004Z,23.99
2023-05-24T11:43:43.072Z,25.58
2023-05-24T11:45:43.187Z,23.89
2023-05-24T11:47:43.146Z,25.32
2023-05-24T11:49:43.090Z,25.61
2023-05-24T11:51:43.202Z,24.01
2023-05-24T11:53:43.140Z,23.96
2023-05-24T11:55:43.317Z,23.83
2023-05-24T11:57:43.163Z,23.90
2023-05-24T11:59:43.139Z,24.05
2023-05-24T12:01:43.057Z,24.05
2023-05-24T12:03:43.353Z,25.49
2023-05-24T12:05:43.108Z,24.21
2023-05-24T12:07:43.152Z,25.44
2023-05-24T12:09:43.113Z,25.11
2023-05-24T12:11:43.213Z,24.04
2023-05-24T12:13:43.130Z,24.41
2023-05-24T12:15:43.115Z,23.92
2023-05-24T12:17:43.186Z,24.15
2023-05-24T12:19:43.107Z,25.39
2023-05-24T12:21:43.233Z,25.24
2023-05-24T12:23:43.130Z,24.19
2023-05-24T12:25:43.143Z,24.37
2023-05-24T12:27:43.142Z,24.35
2023-05-24T12:29:43.166Z,24.33
2023-05-24T12:31:43.389Z,24.27
2023-05-24T12:33:43.121Z,24.66
2023-05-24T12:35:43.173Z,24.00
2023-05-24T12:37:43.136Z,24.58
2023-05-24T12:39:44.541Z,24.26
2023-05-24T12:41:43.201Z,23.82
2023-05-24T12:43:43.079Z,23.84
2023-05-24T12:45:43.221Z,23.84
2023-05-24T12:47:43.148Z,23.94
2023-05-24T12:49:43.171Z,23.53
2023-05-24T12:51:43.152Z,23.49
2023-05-24T12:53:43.078Z,24.48
2023-05-24T12:55:43.104Z,25.29
2023-05-24T12:57:43.094Z,24.04
2023-05-24T12:59:43.258Z,23.88
2023-05-24T13:01:43.373Z,23.93
2023-05-24T13:03:43.134Z,23.98
2023-05-24T13:05:43.154Z,23.98
2023-05-24T13:07:43.207Z,23.85
2023-05-24T13:09:43.106Z,23.98
2023-05-24T13:11:43.193Z,23.94
2023-05-24T13:13:43.177Z,23.91
2023-05-24T13:15:43.152Z,25.65
2023-05-24T13:17:43.255Z,24.04
2023-05-24T13:19:43.185Z,23.91
2023-05-24T13:21:43.189Z,23.89
2023-05-24T13:23:43.226Z,23.96
2023-05-24T13:25:43.237Z,23.93
2023-05-24T13:27:43.197Z,23.54
2023-05-24T13:29:56.628Z,23.50
2023-05-24T13:31:43.703Z,23.26
2023-05-24T13:33:43.156Z,23.23
2023-05-24T13:35:43.478Z,23.39
2023-05-24T13:37:43.190Z,25.65
2023-05-24T13:39:43.199Z,23.94
2023-05-24T13:41:43.780Z,23.96
2023-05-24T13:43:43.211Z,24.07
2023-05-24T13:45:43.244Z,24.07
2023-05-24T13:47:43.454Z,24.15
2023-05-24T13:49:44.312Z,24.16
2023-05-24T13:51:43.247Z,24.26
2023-05-24T13:53:43.273Z,25.79
2023-05-24T13:55:43.191Z,23.95
2023-05-24T13:57:51.731Z,23.95
2023-05-24T13:59:43.256Z,23.95
2023-05-24T14:01:43.176Z,24.02
2023-05-24T14:03:43.200Z,23.89
2023-05-24T14:05:43.575Z,23.95
2023-05-24T14:07:43.228Z,23.95
2023-05-24T14:09:43.246Z,25.52
2023-05-24T14:11:43.201Z,25.43
2023-05-24T14:14:35.971Z,25.55
2023-05-24T14:15:43.469Z,25.80
2023-05-24T14:17:43.351Z,25.35
2023-05-24T14:19:43.258Z,24.07
2023-05-24T14:21:43.244Z,25.61
2023-05-24T14:23:43.223Z,23.85
2023-05-24T14:25:43.471Z,24.38
2023-05-24T14:27:43.291Z,24.10
2023-05-24T14:29:43.282Z,24.04
2023-05-24T14:31:43.263Z,23.87
2023-05-24T14:33:43.286Z,23.96
2023-05-24T14:35:43.381Z,23.96
2023-05-24T14:37:43.339Z,23.95
2023-05-24T14:39:43.299Z,23.89
2023-05-24T14:41:43.306Z,24.01
2023-05-24T14:43:43.284Z,25.57
2023-05-24T14:45:43.753Z,23.84
2023-05-24T14:47:43.271Z,25.47
2023-05-24T14:49:43.309Z,23.49
2023-05-24T14:51:43.294Z,22.95
2023-05-24T14:53:43.339Z,22.80
2023-05-24T14:55:43.936Z,22.74
2023-05-24T14:57:43.263Z,22.70
2023-05-24T14:59:43.296Z,22.68
2023-05-24T15:01:43.508Z,23.34
2023-05-24T15:03:43.474Z,23.73
2023-05-24T15:05:43.326Z,23.89
2023-05-24T15:07:43.220Z,24.26
2023-05-24T15:09:43.299Z,24.53
2023-05-24T15:11:43.313Z,24.55
2023-05-24T15:13:43.356Z,24.60
2023-05-24T15:15:43.440Z,23.73
2023-05-24T15:17:43.201Z,23.56
2023-05-24T15:19:43.285Z,23.34
2023-05-24T15:21:43.344Z,23.41
2023-05-24T15:23:43.380Z,23.36
2023-05-24T15:25:43.295Z,23.48
2023-05-24T15:27:43.280Z,24.09
2023-05-24T15:29:43.351Z,24.78
2023-05-24T15:31:43.425Z,23.24
2023-05-24T15:33:43.361Z,22.78
2023-05-24T15:35:43.316Z,22.66
2023-05-24T15:37:43.260Z,22.50
2023-05-24T15:39:43.379Z,22.67
2023-05-24T15:41:43.280Z,23.05
2023-05-24T15:43:43.370Z,23.26
2023-05-24T15:45:43.297Z,23.96
2023-05-24T15:47:43.413Z,23.93
2023-05-24T15:49:43.454Z,23.81
2023-05-24T15:53:43.354Z,23.96
2023-05-24T15:55:43.378Z,23.81
2023-05-24T15:57:43.340Z,23.93
2023-05-24T15:59:43.341Z,23.95
2023-05-24T16:01:43.340Z,23.94
2023-05-24T16:03:43.524Z,23.87
2023-05-24T16:05:43.446Z,23.91
2023-05-24T16:07:43.306Z,23.91
2023-05-24T16:09:43.253Z,24.10
2023-05-24T16:11:43.381Z,24.53
2023-05-24T16:13:43.410Z,23.37
2023-05-24T16:15:44.505Z,23.25
2023-05-24T16:17:43.594Z,23.23
2023-05-24T16:19:43.435Z,23.25
2023-05-24T16:21:43.275Z,22.87
2023-05-24T16:23:43.290Z,24.10
2023-05-24T16:25:43.383Z,23.96
2023-05-24T16:27:43.282Z,23.94
2023-05-24T16:29:43.480Z,23.98
2023-05-24T16:31:43.497Z,23.89
2023-05-24T16:33:43.559Z,23.81
2023-05-24T16:35:43.384Z,23.76
2023-05-24T16:37:43.358Z,23.87
2023-05-24T16:39:43.441Z,24.10
2023-05-24T16:41:43.376Z,24.04
2023-05-24T16:43:43.496Z,23.97
2023-05-24T16:45:43.348Z,24.00
2023-05-24T16:47:43.555Z,24.11
2023-05-24T16:49:43.395Z,24.27
2023-05-24T16:51:43.432Z,24.21
2023-05-24T16:53:43.321Z,24.25
2023-05-24T16:55:43.539Z,22.81
2023-05-24T16:57:43.409Z,22.60
2023-05-24T16:59:43.474Z,22.55
2023-05-24T17:01:43.432Z,22.38
2023-05-24T17:03:43.528Z,22.45
2023-05-24T17:05:43.460Z,22.92
2023-05-24T17:07:43.452Z,23.66
2023-05-24T17:09:43.456Z,23.96
2023-05-24T17:11:43.443Z,24.12
2023-05-24T17:13:43.474Z,24.30
2023-05-24T17:15:43.434Z,24.51
2023-05-24T17:17:43.462Z,24.23
2023-05-24T17:19:43.497Z,24.28
2023-05-24T17:21:43.472Z,24.14
2023-05-24T17:23:43.480Z,24.02
2023-05-24T17:25:43.469Z,24.07
2023-05-24T17:27:43.429Z,24.00
2023-05-24T17:29:43.486Z,23.86
2023-05-24T17:31:43.404Z,23.81
2023-05-24T17:33:43.455Z,23.79
2023-05-24T17:35:44.609Z,23.03
2023-05-24T17:37:43.524Z,22.65
2023-05-24T17:39:43.473Z,22.37
2023-05-24T17:41:43.530Z,22.19
2023-05-24T17:43:43.390Z,22.14
2023-05-24T17:45:43.739Z,22.40
2023-05-24T17:47:43.540Z,22.55
2023-05-24T17:49:43.437Z,22.55
2023-05-24T17:51:43.524Z,22.82
2023-05-24T17:53:43.511Z,22.84
2023-05-24T17:55:43.745Z,22.94
2023-05-24T17:57:43.471Z,22.96
2023-05-24T17:59:43.561Z,22.90
2023-05-24T18:01:43.537Z,23.96
2023-05-24T18:03:43.520Z,24.02
2023-05-24T18:05:43.885Z,24.09
2023-05-24T18:07:43.676Z,24.10
2023-05-24T18:09:43.476Z,24.22
2023-05-24T18:11:43.501Z,24.23
2023-05-24T18:13:43.531Z,24.13
2023-05-24T18:15:43.617Z,24.20
2023-05-24T18:17:43.609Z,24.14
2023-05-24T18:19:43.453Z,24.14
2023-05-24T18:21:43.502Z,24.26
2023-05-24T18:23:43.489Z,24.14
2023-05-24T18:25:43.882Z,24.10
2023-05-24T18:27:43.540Z,24.08
2023-05-24T18:29:43.502Z,24.07
2023-05-24T18:31:43.541Z,24.08
2023-05-24T18:33:43.592Z,24.10
2023-05-24T18:35:43.786Z,24.10
2023-05-24T18:37:43.516Z,24.04
2023-05-24T18:39:43.651Z,23.99
2023-05-24T18:41:43.567Z,23.98
2023-05-24T18:43:43.592Z,23.95
2023-05-24T18:45:43.734Z,23.93
2023-05-24T18:47:43.574Z,23.97
2023-05-24T18:49:43.615Z,23.96
2023-05-24T18:51:43.590Z,23.97
2023-05-24T18:53:43.533Z,23.90
2023-05-24T18:55:43.763Z,24.24
2023-05-24T18:57:43.640Z,23.81
2023-05-24T18:59:43.570Z,23.83
2023-05-24T19:01:43.590Z,23.87
2023-05-24T19:03:43.652Z,23.79
2023-05-24T19:05:44.309Z,23.86
2023-05-24T19:07:43.724Z,23.92
2023-05-24T19:09:43.575Z,23.83
2023-05-24T19:11:44.580Z,23.87
2023-05-24T19:13:43.631Z,24.05
2023-05-24T19:15:43.874Z,23.81
2023-05-24T19:17:43.643Z,23.82
2023-05-24T19:19:43.586Z,23.81
2023-05-24T19:21:43.627Z,23.89
2023-05-24T19:23:43.680Z,23.80
2023-05-24T19:25:43.922Z,23.81
2023-05-24T19:29:43.689Z,23.70
2023-05-24T19:31:43.626Z,23.65
2023-05-24T19:33:52.332Z,23.79
2023-05-24T19:35:43.783Z,23.77
2023-05-24T19:37:43.630Z,23.66
2023-05-24T19:39:43.681Z,23.87
2023-05-24T19:41:43.676Z,23.86
2023-05-24T19:43:43.713Z,23.81
2023-05-24T19:45:43.875Z,26.56
2023-05-24T19:47:43.664Z,26.76
2023-05-24T19:49:43.622Z,26.92
2023-05-24T19:51:43.522Z,26.92
2023-05-24T19:53:43.617Z,26.98
2023-05-24T19:55:43.879Z,26.92
2023-05-24T19:57:43.650Z,26.90
2023-05-24T19:59:43.753Z,26.96
2023-05-24T20:01:43.679Z,27.03
2023-05-24T20:03:43.616Z,26.99
2023-05-24T20:05:43.977Z,26.99
2023-05-24T20:07:43.592Z,25.37
2023-05-24T20:09:43.710Z,25.29
2023-05-24T20:11:43.636Z,25.40
2023-05-24T20:13:43.659Z,25.35
2023-05-24T20:15:43.832Z,25.33
2023-05-24T20:17:43.732Z,25.29
2023-05-24T20:19:43.656Z,25.32
2023-05-24T20:21:43.595Z,25.32
2023-05-24T20:23:43.604Z,25.29
2023-05-24T20:25:43.749Z,25.24
2023-05-24T20:27:43.667Z,25.37
2023-05-24T20:29:43.562Z,25.19
2023-05-24T20:31:43.642Z,25.21
2023-05-24T20:33:43.691Z,25.23
2023-05-24T20:35:43.713Z,25.29
2023-05-24T20:37:43.673Z,25.18
2023-05-24T20:39:43.699Z,25.26
2023-05-24T20:41:43.546Z,25.23
2023-05-24T20:43:43.644Z,25.23
2023-05-24T20:45:43.930Z,25.28
2023-05-24T20:47:43.637Z,25.34
2023-05-24T20:49:43.685Z,25.35
2023-05-24T20:51:43.694Z,25.29
2023-05-24T20:53:43.593Z,25.29
2023-05-24T20:55:43.793Z,25.29
2023-05-24T20:57:43.673Z,25.29
2023-05-24T20:59:43.700Z,25.37
2023-05-24T21:01:43.801Z,25.32
2023-05-24T21:03:43.796Z,25.34
2023-05-24T21:05:43.894Z,25.32
2023-05-24T21:07:43.801Z,25.25
2023-05-24T21:09:43.803Z,25.45
2023-05-24T21:11:43.706Z,25.41
2023-05-24T21:13:43.583Z,25.29
2023-05-24T21:15:45.373Z,25.32
2023-05-24T21:17:43.788Z,25.34
2023-05-24T21:19:43.749Z,25.40
2023-05-24T21:21:43.740Z,25.39
2023-05-24T21:23:43.688Z,25.36
2023-05-24T21:25:43.949Z,25.29
2023-05-24T21:27:43.677Z,25.47
2023-05-24T21:29:43.741Z,25.35
2023-05-24T21:31:43.817Z,25.37
2023-05-24T21:33:43.743Z,25.32
2023-05-24T21:35:44.071Z,25.38
2023-05-24T21:37:43.707Z,25.44
2023-05-24T21:39:43.942Z,25.23
2023-05-24T21:41:43.683Z,25.29
2023-05-24T21:43:43.718Z,25.32
2023-05-24T21:45:43.890Z,25.43
2023-05-24T21:47:43.756Z,25.43
2023-05-24T21:49:43.776Z,25.41
2023-05-24T21:51:43.763Z,25.39
2023-05-24T21:53:43.687Z,25.33
2023-05-24T21:55:43.903Z,25.31
2023-05-24T21:57:43.767Z,25.37
2023-05-24T21:59:43.769Z,25.36
2023-05-24T22:01:43.779Z,25.30
2023-05-24T22:03:43.784Z,25.37
2023-05-24T22:05:43.882Z,25.35
2023-05-24T22:07:43.739Z,25.32
2023-05-24T22:09:43.773Z,25.33
2023-05-24T22:11:43.796Z,25.29
2023-05-24T22:13:43.689Z,25.38
2023-05-24T22:15:44.006Z,25.33
2023-05-24T22:17:43.755Z,25.40
2023-05-24T22:19:43.724Z,25.38
2023-05-24T22:21:43.815Z,25.31
2023-05-24T22:23:43.725Z,25.31
2023-05-24T22:25:43.773Z,25.29
2023-05-24T22:27:43.780Z,25.35
2023-05-24T22:29:43.676Z,25.23
2023-05-24T22:31:43.862Z,25.33
2023-05-24T22:33:43.744Z,25.41
2023-05-24T22:35:43.890Z,25.33
2023-05-24T22:37:43.795Z,25.32
2023-05-24T22:39:43.804Z,25.38
2023-05-24T22:41:43.788Z,25.29
2023-05-24T22:43:43.754Z,25.40
2023-05-24T22:45:43.996Z,25.36
2023-05-24T22:47:43.823Z,25.40
2023-05-24T22:49:43.761Z,25.33
2023-05-24T22:51:43.797Z,25.29
2023-05-24T22:53:43.805Z,25.37
2023-05-24T22:55:43.953Z,25.32
2023-05-24T22:57:43.847Z,25.40
2023-05-24T22:59:43.790Z,25.31
2023-05-24T23:01:43.803Z,25.30
2023-05-24T23:03:43.753Z,25.31
2023-05-24T23:05:44.064Z,25.32
2023-05-24T23:07:43.789Z,25.29
2023-05-24T23:09:43.773Z,25.39
2023-05-24T23:11:43.809Z,25.29
2023-05-24T23:13:43.801Z,25.33
2023-05-24T23:15:44.047Z,25.33
2023-05-24T23:17:43.836Z,25.33
2023-05-24T23:19:43.862Z,25.29
2023-05-24T23:21:43.819Z,25.37
2023-05-24T23:23:43.761Z,25.31
2023-05-24T23:25:43.969Z,25.33
2023-05-24T23:27:43.767Z,25.37
2023-05-24T23:29:43.849Z,25.29
2023-05-24T23:31:43.920Z,25.35
2023-05-24T23:33:43.800Z,25.35
2023-05-24T23:35:43.942Z,25.33
2023-05-24T23:37:43.789Z,25.37
2023-05-24T23:39:43.839Z,25.42
2023-05-24T23:41:43.876Z,25.27
2023-05-24T23:43:43.856Z,25.39
2023-05-24T23:45:44.074Z,25.43
2023-05-24T23:47:43.861Z,25.36
2023-05-24T23:49:43.937Z,25.37
2023-05-24T23:51:43.849Z,25.31
2023-05-24T23:53:43.883Z,25.41
2023-05-24T23:55:44.016Z,25.31
2023-05-24T23:57:43.882Z,25.28
2023-05-24T23:59:43.930Z,25.33
